PASMPAOM

Guest
Details From PASM - ST MARYS
To PAOM - NOME
Flight Number -
Tags generated
Created
Modified
Stats Distance 158 nm / 293 km
Max Altitude 20,000 ft / 6,096 m
Waypoints 3
Social Downloads 0
Likes 0
Share VATSIM

Download

Looking for another format? Having issues loading an existing format? Contact us
Advertisement - Login to hide

Notes

Basic altitude profile: - Ascent Rate: 2500ft/min - Ascent Speed: 250kts - Cruise Altitude: 35000ft - Cruise Speed: 420kts - Descent Rate: 1500ft/min - Descent Speed: 250kts Options: - Use NATs: yes - Use PACOTS: yes - Use low airways: yes - Use high airways: yes

Route

PASM PICNI PAOM

ID Type Via Altitude Latitude Longitude Leg Dist Tot Dist Heading (true) Name
O PASM APT - 0 ft / 0 m 62.05818˚ -163.30311˚ - 0 nm - ST MARYS
PICNI FIX - 20,000 ft / 6,096 m 62.93896˚ -163.99164˚ 56 nm 56 nm 340° / 340° -
O PAOM APT - 0 ft / 0 m 64.51223˚ -165.44506˚ 102 nm 158 nm 338° / 337° NOME

Altitude Profile

Advertisement - Login to hide

PASM

Details ICAO PASM (KSM)
Name ST MARYS
Region USA (Alaska)
Timezone America/Nome (UTC-9.0)
Stats Elevation 311 ft / 95 m (AMSL)
Location 62.058179° -163.303112°
Runways 2
Magnetic Variation 10.912° E

METAR

PASM 150556Z AUTO 05008KT 10SM OVC065 M11/M12 A2951 RMK AO2 SLP012 60000 T11061117 11078 21122 58009 FZRANO

Decode

TAF

Not found

Departure Runways

ID Width Length Bearing (true) Bearing (mag) Surface Threshold Offset Overrun Length
06 59 ft / 18 m 1,521 ft / 464 m 77.35° 66.44° Gravel 0 ft / 0 m 0 ft / 0 m
17 151 ft / 46 m 6,014 ft / 1,833 m 182.45° 171.54° Gravel 0 ft / 0 m 0 ft / 0 m
24 59 ft / 18 m 1,521 ft / 464 m 257.36° 246.45° Gravel 374 ft / 114 m 0 ft / 0 m
35 151 ft / 46 m 6,014 ft / 1,833 m 2.44° 351.53° Gravel 0 ft / 0 m 0 ft / 0 m

PAOM

Details ICAO PAOM (OME)
Name NOME
Region USA (Alaska)
Timezone America/Nome (UTC-9.0)
Stats Elevation 37 ft / 11 m (AMSL)
Location 64.512227° -165.445062°
Runways 2
Magnetic Variation 10.034° E

METAR

PAOM 150553Z 16007KT 10SM OVC038 M05/M08 A2955

Decode

TAF

PAOM 150538Z 1506/1606 15007KT P6SM OVC035 FM152000 05011KT P6SM SCT250

Decode

Destination Runways

ID Width Length Bearing (true) Bearing (mag) Surface Threshold Offset Overrun Length
03 151 ft / 46 m 5,560 ft / 1,695 m 41.63° 31.60° Asphalt 0 ft / 0 m 0 ft / 0 m
10 151 ft / 46 m 5,979 ft / 1,822 m 109.76° 99.73° Asphalt 0 ft / 0 m 0 ft / 0 m
21 151 ft / 46 m 5,560 ft / 1,695 m 221.65° 211.62° Asphalt 0 ft / 0 m 0 ft / 0 m
28 151 ft / 46 m 5,979 ft / 1,822 m 289.80° 279.77° Asphalt 0 ft / 0 m 0 ft / 0 m

Approach Navaids

Runway Type Ident Frequency Range Bearing (true) Bearing (mag) Slope Elevation
28 Localiser IOME 108.70 MHz 18 nm / 33 km 289.76° 279.73° - 37 ft / 11 m (AMSL)
28 Glidescope IOME 108.70 MHz 10 nm / 19 km 289.78° 279.75° 3.00° 15 ft / 5 m (AMSL)